VIL weather

Dakhla Airport
Dakhla, Western Sahara

Public forecast

Using degrees Celsius for public forecast. Weather courtesy of forecast.io.

METAR (pilot weather report)

Report is more than 2 hours old.

Retrieved 2019/05/20 21:00 UTC (6 hours ago):

GMMH 202100Z 02020KT 6000 NSC 19/16 Q1015 NOSIG

TAF (pilot weather forecast)

Forecast is more than 12 hours old.

Retrieved 2019/05/20 00:00 UTC (1 day ago):

TAF GMMH 202300Z 2100/2206 03024KT CAVOK